createdAt,value
2017-11-27T00:01:40.694Z,14.63
2017-11-27T00:04:08.987Z,8.38
2017-11-27T00:06:36.549Z,6.78
2017-11-27T00:09:04.059Z,14.27
2017-11-27T00:11:31.585Z,10.52
2017-11-27T00:13:59.074Z,7.30
2017-11-27T00:16:26.583Z,6.00
2017-11-27T00:18:54.100Z,5.87
2017-11-27T00:21:21.603Z,11.10
2017-11-27T00:23:49.147Z,5.82
2017-11-27T00:26:16.680Z,5.95
2017-11-27T00:28:44.170Z,7.97
2017-11-27T00:31:12.458Z,6.90
2017-11-27T00:33:39.986Z,14.43
2017-11-27T00:36:07.475Z,4.93
2017-11-27T00:38:35.747Z,4.75
2017-11-27T00:41:03.254Z,9.15
2017-11-27T00:43:30.751Z,7.60
2017-11-27T00:45:59.001Z,5.47
2017-11-27T00:48:26.534Z,8.65
2017-11-27T00:50:54.024Z,5.10
2017-11-27T00:53:21.555Z,6.18
2017-11-27T00:55:49.070Z,10.27
2017-11-27T00:58:17.336Z,10.50
2017-11-27T01:00:45.610Z,20.75
2017-11-27T01:03:13.883Z,5.65
2017-11-27T01:05:42.222Z,12.27
2017-11-27T01:08:09.703Z,5.80
2017-11-27T01:10:37.242Z,11.30
2017-11-27T01:13:04.738Z,7.87
2017-11-27T01:15:33.027Z,5.82
2017-11-27T01:18:00.623Z,10.02
2017-11-27T01:20:28.134Z,5.25
2017-11-27T01:22:56.415Z,7.57
2017-11-27T01:25:24.706Z,9.15
2017-11-27T01:27:52.962Z,14.23
2017-11-27T01:30:21.351Z,11.50
2017-11-27T01:32:49.634Z,4.40
2017-11-27T01:35:17.899Z,3.10
2017-11-27T01:37:46.156Z,14.10
2017-11-27T01:40:13.731Z,5.85
2017-11-27T01:42:42.014Z,8.80
2017-11-27T01:45:10.266Z,7.87
2017-11-27T01:47:37.769Z,11.35
2017-11-27T01:50:05.284Z,12.43
2017-11-27T01:52:32.803Z,7.70
2017-11-27T01:55:00.322Z,8.30
2017-11-27T01:57:28.599Z,18.55
2017-11-27T01:59:56.876Z,11.20
2017-11-27T02:02:25.162Z,10.00
2017-11-27T02:04:53.413Z,12.88
2017-11-27T02:07:20.912Z,7.78
2017-11-27T02:09:48.443Z,16.98
2017-11-27T02:12:16.706Z,11.63
2017-11-27T02:14:44.208Z,10.35
2017-11-27T02:17:11.779Z,8.93
2017-11-27T02:19:39.279Z,9.05
2017-11-27T02:22:06.793Z,20.23
2017-11-27T02:24:34.315Z,6.50
2017-11-27T02:27:02.565Z,9.05
2017-11-27T02:29:30.050Z,9.40
2017-11-27T02:31:58.330Z,12.50
2017-11-27T02:34:26.637Z,13.05
2017-11-27T02:36:54.122Z,9.15
2017-11-27T02:39:21.658Z,7.45
2017-11-27T02:41:49.204Z,5.45
2017-11-27T02:44:16.680Z,12.63
2017-11-27T02:46:44.193Z,7.90
2017-11-27T02:49:11.674Z,9.05
2017-11-27T02:51:39.165Z,10.43
2017-11-27T02:54:06.684Z,7.68
2017-11-27T02:56:34.204Z,8.52
2017-11-27T02:59:01.696Z,8.70
2017-11-27T03:01:29.979Z,6.03
2017-11-27T03:03:58.238Z,10.05
2017-11-27T03:06:26.501Z,9.50
2017-11-27T03:08:54.019Z,9.85
2017-11-27T03:11:21.508Z,6.78
2017-11-27T03:13:49.017Z,12.68
2017-11-27T03:16:16.522Z,6.47
2017-11-27T03:18:44.002Z,7.18
2017-11-27T03:21:12.294Z,10.35
2017-11-27T03:23:39.829Z,7.97
2017-11-27T03:26:07.355Z,8.13
2017-11-27T03:28:34.871Z,7.28
2017-11-27T03:31:03.130Z,7.65
2017-11-27T03:33:31.413Z,7.15
2017-11-27T03:35:59.686Z,4.03
2017-11-27T03:38:27.204Z,5.87
2017-11-27T03:40:54.701Z,7.45
2017-11-27T03:43:22.220Z,14.82
2017-11-27T03:45:49.728Z,6.37
2017-11-27T03:48:17.987Z,4.85
2017-11-27T03:50:45.520Z,4.60
2017-11-27T03:53:13.018Z,9.82
2017-11-27T03:55:41.296Z,5.07
2017-11-27T03:58:09.558Z,6.32
2017-11-27T04:00:37.087Z,15.25
2017-11-27T04:03:04.600Z,6.05
2017-11-27T04:05:32.860Z,6.43
2017-11-27T04:08:00.358Z,6.82
2017-11-27T04:10:27.857Z,10.10
2017-11-27T04:12:55.370Z,2.85
2017-11-27T04:15:22.879Z,3.97
2017-11-27T04:17:50.404Z,10.68
2017-11-27T04:20:17.909Z,4.40
2017-11-27T04:22:45.524Z,4.85
2017-11-27T04:25:13.031Z,10.07
2017-11-27T04:27:40.511Z,5.25
2017-11-27T04:30:08.783Z,5.05
2017-11-27T04:32:36.294Z,10.15
2017-11-27T04:35:03.780Z,4.20
2017-11-27T04:37:31.279Z,6.15
2017-11-27T04:39:58.769Z,4.22
2017-11-27T04:42:26.279Z,5.55
2017-11-27T04:44:54.536Z,6.90
2017-11-27T04:47:22.053Z,4.03
2017-11-27T04:49:49.567Z,4.72
2017-11-27T04:52:17.827Z,7.45
2017-11-27T04:54:45.323Z,3.78
2017-11-27T04:57:12.828Z,8.32
2017-11-27T04:59:40.331Z,3.10
2017-11-27T05:02:07.819Z,5.95
2017-11-27T05:04:35.336Z,4.05
2017-11-27T05:07:03.594Z,3.37
2017-11-27T05:09:31.086Z,7.60
2017-11-27T05:11:58.598Z,5.20
2017-11-27T05:14:26.092Z,9.88
2017-11-27T05:16:54.393Z,6.25
2017-11-27T05:19:22.088Z,9.35
2017-11-27T05:21:49.600Z,7.07
2017-11-27T05:24:17.107Z,11.73
2017-11-27T05:26:44.595Z,8.85
2017-11-27T05:29:12.871Z,8.25
2017-11-27T05:31:41.135Z,8.43
2017-11-27T05:34:09.426Z,10.35
2017-11-27T05:36:37.708Z,8.98
2017-11-27T05:39:05.982Z,5.55
2017-11-27T05:41:34.249Z,8.55
2017-11-27T05:44:02.539Z,5.75
2017-11-27T05:46:30.822Z,5.07
2017-11-27T05:48:59.100Z,5.18
2017-11-27T05:51:27.385Z,8.50
2017-11-27T05:53:54.888Z,6.40
2017-11-27T05:56:22.424Z,3.60
2017-11-27T05:58:49.928Z,4.10
2017-11-27T06:01:17.429Z,7.28
2017-11-27T06:03:44.978Z,7.93
2017-11-27T06:06:12.492Z,10.45
2017-11-27T06:08:40.009Z,7.15
2017-11-27T06:11:07.507Z,7.20
2017-11-27T06:13:35.044Z,4.30
2017-11-27T06:16:02.535Z,5.07
2017-11-27T06:18:30.736Z,7.35
2017-11-27T06:20:59.022Z,3.62
2017-11-27T06:23:26.510Z,5.70
2017-11-27T06:25:54.054Z,8.27
2017-11-27T06:28:22.295Z,4.37
2017-11-27T06:30:51.362Z,3.70
2017-11-27T06:33:18.859Z,6.80
2017-11-27T06:35:47.115Z,4.10
2017-11-27T06:38:14.623Z,4.28
2017-11-27T06:40:42.140Z,3.10
2017-11-27T06:43:10.458Z,12.27
2017-11-27T06:45:37.964Z,3.85
2017-11-27T06:48:05.488Z,8.13
2017-11-27T06:50:32.991Z,4.93
2017-11-27T06:53:01.268Z,9.40
2017-11-27T06:55:28.781Z,6.82
2017-11-27T06:57:56.276Z,4.18
2017-11-27T07:00:23.784Z,6.60
2017-11-27T07:02:51.288Z,4.15
2017-11-27T07:05:18.909Z,5.22
2017-11-27T07:07:46.421Z,4.62
2017-11-27T07:10:14.694Z,7.68
2017-11-27T07:12:42.211Z,3.60
2017-11-27T07:15:09.719Z,8.57
2017-11-27T07:17:38.076Z,4.20
2017-11-27T07:20:05.604Z,12.75
2017-11-27T07:22:33.099Z,8.52
2017-11-27T07:25:00.613Z,8.13
2017-11-27T07:27:28.125Z,6.10
2017-11-27T07:29:55.632Z,7.37
2017-11-27T07:32:23.156Z,4.72
2017-11-27T07:34:51.437Z,8.77
2017-11-27T07:37:25.324Z,4.18
2017-11-27T07:39:53.655Z,4.25
2017-11-27T07:42:21.159Z,3.60
2017-11-27T07:44:48.699Z,4.32
2017-11-27T07:47:16.195Z,8.30
2017-11-27T07:49:44.471Z,4.43
2017-11-27T07:52:12.772Z,4.57
2017-11-27T07:54:41.068Z,3.40
2017-11-27T07:57:08.576Z,5.70
2017-11-27T07:59:36.863Z,5.03
2017-11-27T08:02:05.136Z,5.18
2017-11-27T08:04:33.404Z,5.80
2017-11-27T08:07:01.685Z,8.68
2017-11-27T08:09:29.948Z,4.80
2017-11-27T08:11:57.472Z,4.68
2017-11-27T08:14:24.986Z,4.70
2017-11-27T08:16:53.240Z,4.25
2017-11-27T08:19:20.763Z,4.35
2017-11-27T08:21:48.264Z,4.53
2017-11-27T08:24:15.807Z,3.85
2017-11-27T08:26:43.350Z,4.60
2017-11-27T08:29:10.897Z,5.50
2017-11-27T08:31:38.432Z,5.22
2017-11-27T08:34:05.927Z,4.70
2017-11-27T08:36:33.448Z,4.65
2017-11-27T08:39:00.963Z,5.65
2017-11-27T08:41:28.486Z,4.72
2017-11-27T08:43:55.988Z,7.37
2017-11-27T08:46:23.508Z,6.47
2017-11-27T08:48:51.064Z,4.82
2017-11-27T08:51:18.566Z,4.12
2017-11-27T08:53:46.089Z,3.45
2017-11-27T08:56:13.583Z,3.80
2017-11-27T08:58:41.098Z,4.40
2017-11-27T09:01:08.598Z,3.85
2017-11-27T09:03:36.109Z,9.70
2017-11-27T09:06:03.601Z,3.25
2017-11-27T09:08:31.093Z,3.37
2017-11-27T09:10:59.368Z,3.25
2017-11-27T09:13:27.623Z,3.33
2017-11-27T09:15:55.156Z,3.60
2017-11-27T09:18:22.677Z,4.95
2017-11-27T09:20:50.960Z,4.82
2017-11-27T09:23:18.456Z,3.22
2017-11-27T09:25:45.959Z,6.87
2017-11-27T09:28:14.251Z,3.20
2017-11-27T09:30:41.743Z,2.10
2017-11-27T09:33:09.254Z,3.80
2017-11-27T09:35:37.525Z,3.85
2017-11-27T09:38:05.804Z,2.70
2017-11-27T09:40:34.089Z,2.10
2017-11-27T09:43:02.379Z,2.78
2017-11-27T09:45:29.892Z,1.92
2017-11-27T09:47:57.420Z,1.98
2017-11-27T09:50:25.225Z,2.60
2017-11-27T09:52:52.718Z,2.00
2017-11-27T09:55:20.220Z,1.65
2017-11-27T09:57:47.719Z,1.92
2017-11-27T10:00:16.888Z,2.65
2017-11-27T10:02:44.411Z,2.92
2017-11-27T10:05:11.901Z,1.85
2017-11-27T10:07:39.429Z,2.72
2017-11-27T10:10:06.948Z,2.33
2017-11-27T10:12:35.232Z,1.62
2017-11-27T10:15:03.499Z,1.48
2017-11-27T10:17:31.751Z,2.58
2017-11-27T10:19:59.247Z,1.60
2017-11-27T10:22:27.513Z,2.87
2017-11-27T10:24:55.829Z,2.67
2017-11-27T10:27:24.114Z,2.08
2017-11-27T10:29:51.644Z,2.75
2017-11-27T10:32:19.135Z,1.48
2017-11-27T10:34:46.631Z,1.90
2017-11-27T10:37:14.198Z,1.40
2017-11-27T10:39:42.471Z,2.30
2017-11-27T10:42:09.984Z,2.78
2017-11-27T10:44:37.487Z,2.65
2017-11-27T10:47:05.772Z,2.17
2017-11-27T10:49:34.041Z,1.73
2017-11-27T10:52:01.535Z,1.55
2017-11-27T10:54:29.044Z,2.10
2017-11-27T10:56:56.667Z,1.20
2017-11-27T10:59:24.176Z,1.95
2017-11-27T11:01:52.469Z,1.65
2017-11-27T11:04:20.760Z,1.65
2017-11-27T11:06:48.279Z,1.98
2017-11-27T11:09:15.767Z,1.50
2017-11-27T11:11:44.075Z,1.48
2017-11-27T11:14:11.571Z,1.50
2017-11-27T11:16:39.092Z,1.45
2017-11-27T11:19:06.579Z,1.62
2017-11-27T11:21:34.097Z,1.30
2017-11-27T11:24:01.586Z,2.08
2017-11-27T11:26:29.088Z,1.40
2017-11-27T11:28:57.364Z,2.83
2017-11-27T11:31:25.646Z,1.90
2017-11-27T11:33:53.921Z,1.55
2017-11-27T11:36:22.195Z,2.75
2017-11-27T11:38:50.479Z,4.32
2017-11-27T11:41:18.780Z,1.98
2017-11-27T11:43:46.276Z,1.20
2017-11-27T11:46:13.806Z,1.60
2017-11-27T11:48:41.367Z,1.60
2017-11-27T11:51:08.882Z,3.47
2017-11-27T11:53:37.146Z,0.90
2017-11-27T11:56:04.678Z,1.30
2017-11-27T11:58:32.199Z,2.00
2017-11-27T12:00:59.698Z,4.20
2017-11-27T12:03:27.219Z,1.87
2017-11-27T12:05:54.739Z,2.67
2017-11-27T12:08:23.038Z,0.85
2017-11-27T12:10:51.323Z,1.25
2017-11-27T12:13:19.615Z,2.35
2017-11-27T12:15:47.107Z,0.70
2017-11-27T12:18:14.611Z,0.80
2017-11-27T12:20:42.923Z,0.77
2017-11-27T12:23:10.434Z,0.75
2017-11-27T12:25:37.965Z,1.27
2017-11-27T12:28:05.547Z,1.05
2017-11-27T12:30:33.851Z,1.15
2017-11-27T12:33:01.408Z,2.45
2017-11-27T12:35:28.979Z,1.27
2017-11-27T12:37:56.568Z,1.12
2017-11-27T12:40:24.224Z,0.95
2017-11-27T12:42:51.771Z,1.52
2017-11-27T12:45:19.314Z,3.50
2017-11-27T12:47:46.824Z,1.30
2017-11-27T12:50:14.447Z,2.12
2017-11-27T12:52:42.016Z,1.20
2017-11-27T12:55:09.539Z,0.90
2017-11-27T12:57:38.209Z,1.05
2017-11-27T13:00:05.769Z,1.17
2017-11-27T13:02:33.795Z,4.15
2017-11-27T13:05:01.335Z,1.45
2017-11-27T13:07:28.911Z,0.98
2017-11-27T13:09:56.435Z,1.00
2017-11-27T13:12:24.798Z,2.08
2017-11-27T13:14:52.327Z,1.23
2017-11-27T13:17:19.899Z,2.70
2017-11-27T13:19:47.456Z,9.90
2017-11-27T13:22:14.974Z,1.20
2017-11-27T13:24:42.525Z,1.70
2017-11-27T13:27:10.077Z,1.90
2017-11-27T13:29:37.626Z,2.15
2017-11-27T13:32:05.938Z,1.45
2017-11-27T13:34:33.553Z,4.68
2017-11-27T13:37:01.884Z,3.28
2017-11-27T13:39:29.448Z,1.30
2017-11-27T13:41:57.008Z,2.00
2017-11-27T13:44:24.562Z,3.30
2017-11-27T13:46:52.154Z,1.60
2017-11-27T13:49:19.785Z,2.33
2017-11-27T13:51:47.336Z,1.40
2017-11-27T13:54:15.048Z,2.37
2017-11-27T13:56:43.419Z,1.62
2017-11-27T13:59:10.987Z,2.30
2017-11-27T14:01:38.540Z,2.33
2017-11-27T14:04:06.093Z,1.48
2017-11-27T14:06:33.639Z,1.83
2017-11-27T14:09:01.154Z,3.45
2017-11-27T14:11:28.683Z,2.75
2017-11-27T14:13:56.268Z,4.03
2017-11-27T14:16:23.904Z,3.25
2017-11-27T14:18:51.444Z,2.78
2017-11-27T14:21:18.988Z,1.30
2017-11-27T14:23:46.528Z,1.98
2017-11-27T14:26:14.140Z,1.40
2017-11-27T14:28:41.672Z,1.77
2017-11-27T14:31:09.284Z,1.70
2017-11-27T14:33:37.627Z,1.80
2017-11-27T14:36:05.199Z,1.92
2017-11-27T14:38:32.723Z,1.92
2017-11-27T14:41:00.286Z,1.45
2017-11-27T14:43:27.820Z,2.15
2017-11-27T14:45:55.349Z,2.72
2017-11-27T14:48:22.867Z,2.53
2017-11-27T14:50:50.392Z,1.70
2017-11-27T14:53:17.977Z,2.30
2017-11-27T14:55:45.496Z,1.77
2017-11-27T14:58:13.750Z,3.15
2017-11-27T15:00:41.264Z,2.78
2017-11-27T15:03:08.775Z,8.38
2017-11-27T15:05:36.286Z,2.33
2017-11-27T15:08:03.806Z,1.58
2017-11-27T15:10:32.339Z,2.92
2017-11-27T15:12:59.857Z,1.77
2017-11-27T15:15:27.380Z,2.50
2017-11-27T15:17:54.883Z,2.65
2017-11-27T15:20:22.428Z,4.43
2017-11-27T15:22:50.696Z,3.83
2017-11-27T15:25:18.967Z,1.90
2017-11-27T15:27:47.670Z,1.65
2017-11-27T15:30:15.965Z,1.73
2017-11-27T15:32:43.528Z,2.45
2017-11-27T15:35:11.025Z,5.10
2017-11-27T15:37:38.596Z,1.80
2017-11-27T15:40:06.139Z,1.45
2017-11-27T15:42:33.651Z,2.15
2017-11-27T15:45:01.220Z,1.92
2017-11-27T15:47:28.716Z,2.05
2017-11-27T15:49:56.289Z,3.33
2017-11-27T15:52:23.844Z,2.60
2017-11-27T15:54:51.386Z,1.55
2017-11-27T15:57:18.971Z,0.88
2017-11-27T15:59:46.574Z,2.15
2017-11-27T16:02:14.150Z,2.15
2017-11-27T16:04:41.725Z,3.15
2017-11-27T16:07:09.296Z,2.17
2017-11-27T16:09:36.836Z,2.42
2017-11-27T16:12:04.412Z,2.12
2017-11-27T16:14:32.025Z,2.05
2017-11-27T16:16:59.632Z,1.60
2017-11-27T16:19:27.238Z,2.92
2017-11-27T16:21:54.804Z,1.70
2017-11-27T16:24:23.135Z,2.53
2017-11-27T16:26:50.725Z,1.35
2017-11-27T16:29:19.076Z,1.85
2017-11-27T16:31:46.713Z,1.42
2017-11-27T16:34:14.366Z,1.83
2017-11-27T16:36:41.994Z,1.75
2017-11-27T16:39:10.352Z,1.90
2017-11-27T16:41:37.940Z,2.28
2017-11-27T16:44:05.560Z,1.48
2017-11-27T16:46:33.101Z,1.23
2017-11-27T16:49:00.711Z,1.83
2017-11-27T16:51:28.270Z,2.28
2017-11-27T16:53:55.846Z,2.25
2017-11-27T16:56:24.148Z,1.48
2017-11-27T16:58:51.647Z,1.70
2017-11-27T17:01:19.190Z,2.62
2017-11-27T17:03:46.720Z,2.03
2017-11-27T17:06:14.239Z,1.70
2017-11-27T17:08:42.507Z,1.70
2017-11-27T17:11:10.077Z,1.52
2017-11-27T17:13:37.636Z,1.75
2017-11-27T17:16:05.209Z,1.98
2017-11-27T17:18:33.503Z,1.50
2017-11-27T17:21:01.110Z,1.83
2017-11-27T17:23:28.754Z,3.90
2017-11-27T17:25:56.295Z,2.03
2017-11-27T17:28:23.865Z,2.37
2017-11-27T17:30:51.456Z,1.60
2017-11-27T17:33:19.051Z,2.75
2017-11-27T17:35:47.397Z,4.12
2017-11-27T17:38:15.016Z,1.87
2017-11-27T17:40:42.544Z,2.95
2017-11-27T17:43:10.873Z,2.05
2017-11-27T17:45:38.529Z,2.65
2017-11-27T17:48:06.360Z,2.72
2017-11-27T17:50:34.650Z,2.78
2017-11-27T17:53:02.243Z,3.28
2017-11-27T17:55:29.764Z,3.35
2017-11-27T17:57:58.066Z,4.97
2017-11-27T18:00:25.629Z,4.25
2017-11-27T18:02:53.176Z,3.37
2017-11-27T18:05:20.749Z,2.12
2017-11-27T18:07:48.319Z,2.90
2017-11-27T18:10:15.919Z,3.90
2017-11-27T18:12:43.476Z,3.60
2017-11-27T18:15:11.054Z,4.20
2017-11-27T18:17:39.352Z,3.83
2017-11-27T18:20:06.925Z,4.20
2017-11-27T18:22:34.566Z,4.25
2017-11-27T18:25:02.204Z,2.95
2017-11-27T18:27:30.767Z,4.00
2017-11-27T18:29:59.181Z,4.35
2017-11-27T18:32:26.731Z,2.87
2017-11-27T18:34:55.101Z,2.85
2017-11-27T18:37:23.480Z,2.72
2017-11-27T18:39:51.920Z,6.95
2017-11-27T18:42:19.487Z,2.05
2017-11-27T18:44:47.044Z,2.90
2017-11-27T18:47:14.667Z,2.92
2017-11-27T18:49:42.240Z,3.78
2017-11-27T18:52:09.834Z,2.50
2017-11-27T18:54:37.433Z,3.22
2017-11-27T18:57:05.711Z,3.75
2017-11-27T18:59:34.193Z,4.65
2017-11-27T19:02:02.561Z,3.83
2017-11-27T19:04:30.933Z,9.95
2017-11-27T19:06:59.241Z,10.70
2017-11-27T19:09:26.919Z,5.70
2017-11-27T19:11:54.485Z,4.37
2017-11-27T19:14:22.067Z,3.85
2017-11-27T19:16:49.716Z,5.47
2017-11-27T19:19:17.316Z,6.30
2017-11-27T19:21:44.898Z,5.70
2017-11-27T19:24:12.489Z,3.10
2017-11-27T19:26:40.074Z,5.05
2017-11-27T19:29:07.668Z,2.85
2017-11-27T19:31:36.025Z,4.47
2017-11-27T19:34:03.662Z,4.97
2017-11-27T19:36:31.257Z,4.57
2017-11-27T19:38:58.831Z,3.25
2017-11-27T19:41:27.215Z,3.12
2017-11-27T19:43:54.780Z,3.17
2017-11-27T19:46:23.086Z,2.83
2017-11-27T19:48:50.654Z,2.78
2017-11-27T19:51:18.227Z,3.33
2017-11-27T19:53:45.923Z,3.92
2017-11-27T19:56:14.261Z,1.40
2017-11-27T19:58:41.812Z,2.17
2017-11-27T20:01:09.383Z,2.87
2017-11-27T20:03:37.046Z,3.97
2017-11-27T20:06:04.704Z,3.92
2017-11-27T20:08:32.324Z,2.20
2017-11-27T20:11:00.637Z,3.12
2017-11-27T20:13:28.429Z,2.60
2017-11-27T20:15:56.070Z,2.22
2017-11-27T20:18:23.778Z,3.42
2017-11-27T20:20:52.134Z,1.67
2017-11-27T20:23:19.721Z,1.95
2017-11-27T20:25:48.064Z,1.83
2017-11-27T20:28:15.714Z,2.35
2017-11-27T20:30:43.316Z,1.55
2017-11-27T20:33:11.661Z,1.50
2017-11-27T20:35:39.201Z,1.70
2017-11-27T20:38:06.852Z,1.80
2017-11-27T20:40:34.387Z,2.17
2017-11-27T20:43:02.063Z,3.22
2017-11-27T20:45:29.664Z,1.70
2017-11-27T20:47:57.213Z,2.65
2017-11-27T20:50:24.768Z,3.25
2017-11-27T20:52:52.334Z,1.52
2017-11-27T20:55:19.937Z,3.20
2017-11-27T20:57:48.263Z,4.12
2017-11-27T21:00:15.840Z,3.72
2017-11-27T21:02:43.425Z,1.80
2017-11-27T21:05:11.074Z,1.70
2017-11-27T21:07:38.656Z,1.65
2017-11-27T21:10:06.977Z,4.20
2017-11-27T21:12:34.556Z,1.70
2017-11-27T21:15:02.164Z,3.00
2017-11-27T21:17:30.540Z,3.05
2017-11-27T21:19:58.196Z,3.03
2017-11-27T21:22:25.795Z,2.25
2017-11-27T21:24:53.342Z,1.70
2017-11-27T21:27:22.955Z,1.55
2017-11-27T21:29:50.505Z,7.90
2017-11-27T21:32:18.078Z,3.33
2017-11-27T21:34:45.678Z,1.27
2017-11-27T21:37:13.250Z,1.37
2017-11-27T21:39:40.872Z,1.60
2017-11-27T21:42:08.431Z,3.75
2017-11-27T21:44:36.769Z,7.97
2017-11-27T21:47:04.312Z,1.30
2017-11-27T21:49:31.816Z,2.55
2017-11-27T21:51:59.393Z,3.22
2017-11-27T21:54:26.936Z,1.30
2017-11-27T21:56:54.479Z,1.58
2017-11-27T21:59:22.035Z,1.50
2017-11-27T22:01:49.640Z,3.45
2017-11-27T22:04:17.201Z,2.45
2017-11-27T22:06:44.797Z,4.30
2017-11-27T22:09:13.131Z,1.50
2017-11-27T22:11:40.695Z,8.80
2017-11-27T22:14:08.233Z,3.45
2017-11-27T22:16:35.832Z,3.20
2017-11-27T22:19:05.020Z,3.12
2017-11-27T22:21:32.585Z,3.05
2017-11-27T22:24:00.139Z,3.87
2017-11-27T22:26:27.651Z,5.00
2017-11-27T22:28:55.952Z,4.35
2017-11-27T22:31:23.486Z,6.50
2017-11-27T22:33:51.833Z,1.85
2017-11-27T22:36:19.584Z,3.25
2017-11-27T22:38:47.227Z,1.60
2017-11-27T22:41:14.732Z,4.00
2017-11-27T22:43:42.253Z,3.20
2017-11-27T22:46:09.865Z,2.40
2017-11-27T22:48:38.349Z,1.85
2017-11-27T22:51:05.886Z,4.50
2017-11-27T22:53:33.428Z,4.00
2017-11-27T22:56:00.936Z,1.80
2017-11-27T22:58:28.443Z,2.10
2017-11-27T23:00:55.968Z,3.47
2017-11-27T23:03:23.473Z,6.55
2017-11-27T23:05:50.982Z,5.00
2017-11-27T23:08:18.514Z,5.05
2017-11-27T23:10:46.806Z,2.53
2017-11-27T23:13:15.070Z,3.05
2017-11-27T23:15:43.332Z,2.75
2017-11-27T23:18:10.861Z,4.07
2017-11-27T23:20:38.423Z,10.65
2017-11-27T23:23:05.959Z,3.08
2017-11-27T23:25:33.511Z,6.80
2017-11-27T23:28:01.061Z,4.03
2017-11-27T23:30:28.620Z,4.47
2017-11-27T23:32:56.962Z,3.65
2017-11-27T23:35:24.472Z,2.25
2017-11-27T23:37:51.975Z,3.87
2017-11-27T23:40:19.483Z,3.90
2017-11-27T23:42:47.057Z,2.72
2017-11-27T23:45:14.617Z,3.12
2017-11-27T23:47:42.121Z,2.83
2017-11-27T23:50:09.630Z,5.40
2017-11-27T23:52:37.132Z,9.40
2017-11-27T23:55:04.684Z,5.10
2017-11-27T23:57:32.235Z,3.28
2017-11-27T23:59:59.739Z,3.87
